sensor_id;sensor_type;location;lat;lon;timestamp;temperature;humidity
51613;DHT22;37694;51.748;14.326;2023-05-07T00:02:21;23.90;45.20
51613;DHT22;37694;51.748;14.326;2023-05-07T00:04:48;23.90;45.40
51613;DHT22;37694;51.748;14.326;2023-05-07T00:07:14;23.90;45.40
51613;DHT22;37694;51.748;14.326;2023-05-07T00:09:40;23.90;45.30
51613;DHT22;37694;51.748;14.326;2023-05-07T00:12:07;23.90;45.40
51613;DHT22;37694;51.748;14.326;2023-05-07T00:14:33;23.90;45.10
51613;DHT22;37694;51.748;14.326;2023-05-07T00:16:58;23.90;45.10
51613;DHT22;37694;51.748;14.326;2023-05-07T00:19:24;23.90;45.00
51613;DHT22;37694;51.748;14.326;2023-05-07T00:21:50;23.90;44.90
51613;DHT22;37694;51.748;14.326;2023-05-07T00:24:18;23.90;44.90
51613;DHT22;37694;51.748;14.326;2023-05-07T00:26:44;23.90;45.10
51613;DHT22;37694;51.748;14.326;2023-05-07T00:29:10;23.90;44.80
51613;DHT22;37694;51.748;14.326;2023-05-07T00:31:36;23.80;44.80
51613;DHT22;37694;51.748;14.326;2023-05-07T00:34:02;23.80;44.90
51613;DHT22;37694;51.748;14.326;2023-05-07T00:36:27;23.80;44.80
51613;DHT22;37694;51.748;14.326;2023-05-07T00:38:56;23.90;44.80
51613;DHT22;37694;51.748;14.326;2023-05-07T00:41:22;23.80;44.80
51613;DHT22;37694;51.748;14.326;2023-05-07T00:43:48;23.80;44.70
51613;DHT22;37694;51.748;14.326;2023-05-07T00:46:13;23.80;44.80
51613;DHT22;37694;51.748;14.326;2023-05-07T00:48:41;23.80;45.70
51613;DHT22;37694;51.748;14.326;2023-05-07T00:51:06;23.80;44.80
51613;DHT22;37694;51.748;14.326;2023-05-07T00:53:32;23.80;44.80
51613;DHT22;37694;51.748;14.326;2023-05-07T00:55:58;23.80;44.80
51613;DHT22;37694;51.748;14.326;2023-05-07T00:58:26;23.80;44.80
51613;DHT22;37694;51.748;14.326;2023-05-07T01:00:52;23.80;44.70
51613;DHT22;37694;51.748;14.326;2023-05-07T01:03:17;23.80;44.80
51613;DHT22;37694;51.748;14.326;2023-05-07T01:05:44;23.80;44.80
51613;DHT22;37694;51.748;14.326;2023-05-07T01:08:11;23.80;44.90
51613;DHT22;37694;51.748;14.326;2023-05-07T01:10:37;23.70;44.90
51613;DHT22;37694;51.748;14.326;2023-05-07T01:13:03;23.70;44.80
51613;DHT22;37694;51.748;14.326;2023-05-07T01:15:30;23.70;45.20
51613;DHT22;37694;51.748;14.326;2023-05-07T01:17:56;23.80;45.00
51613;DHT22;37694;51.748;14.326;2023-05-07T01:20:23;23.70;44.80
51613;DHT22;37694;51.748;14.326;2023-05-07T01:22:49;23.70;44.90
51613;DHT22;37694;51.748;14.326;2023-05-07T01:25:15;23.70;45.50
51613;DHT22;37694;51.748;14.326;2023-05-07T01:27:41;23.70;45.30
51613;DHT22;37694;51.748;14.326;2023-05-07T01:30:07;23.70;45.10
51613;DHT22;37694;51.748;14.326;2023-05-07T01:35:02;23.70;45.50
51613;DHT22;37694;51.748;14.326;2023-05-07T01:37:30;23.70;45.50
51613;DHT22;37694;51.748;14.326;2023-05-07T01:39:56;23.70;45.60
51613;DHT22;37694;51.748;14.326;2023-05-07T01:42:22;23.70;45.90
51613;DHT22;37694;51.748;14.326;2023-05-07T01:44:48;23.70;45.60
51613;DHT22;37694;51.748;14.326;2023-05-07T01:47:14;23.70;45.80
51613;DHT22;37694;51.748;14.326;2023-05-07T01:49:42;23.60;45.90
51613;DHT22;37694;51.748;14.326;2023-05-07T01:52:09;23.60;45.90
51613;DHT22;37694;51.748;14.326;2023-05-07T01:54:35;23.60;45.90
51613;DHT22;37694;51.748;14.326;2023-05-07T01:57:01;23.60;45.70
51613;DHT22;37694;51.748;14.326;2023-05-07T01:59:27;23.60;45.90
51613;DHT22;37694;51.748;14.326;2023-05-07T02:01:52;23.60;45.70
51613;DHT22;37694;51.748;14.326;2023-05-07T02:04:18;23.60;45.90
51613;DHT22;37694;51.748;14.326;2023-05-07T02:06:43;23.60;45.90
51613;DHT22;37694;51.748;14.326;2023-05-07T02:09:09;23.60;45.80
51613;DHT22;37694;51.748;14.326;2023-05-07T02:11:35;23.60;45.70
51613;DHT22;37694;51.748;14.326;2023-05-07T02:14:01;23.60;45.70
51613;DHT22;37694;51.748;14.326;2023-05-07T02:16:26;23.60;45.80
51613;DHT22;37694;51.748;14.326;2023-05-07T02:18:52;23.60;45.80
51613;DHT22;37694;51.748;14.326;2023-05-07T02:21:18;23.60;45.90
51613;DHT22;37694;51.748;14.326;2023-05-07T02:23:43;23.60;45.90
51613;DHT22;37694;51.748;14.326;2023-05-07T02:26:10;23.60;46.10
51613;DHT22;37694;51.748;14.326;2023-05-07T02:28:36;23.50;46.10
51613;DHT22;37694;51.748;14.326;2023-05-07T02:31:05;23.50;46.70
51613;DHT22;37694;51.748;14.326;2023-05-07T02:33:31;23.60;46.20
51613;DHT22;37694;51.748;14.326;2023-05-07T02:35:57;23.50;45.90
51613;DHT22;37694;51.748;14.326;2023-05-07T02:38:30;23.50;46.00
51613;DHT22;37694;51.748;14.326;2023-05-07T02:40:55;23.50;46.20
51613;DHT22;37694;51.748;14.326;2023-05-07T02:43:21;23.50;46.20
51613;DHT22;37694;51.748;14.326;2023-05-07T02:45:46;23.50;46.10
51613;DHT22;37694;51.748;14.326;2023-05-07T02:48:12;23.50;46.10
51613;DHT22;37694;51.748;14.326;2023-05-07T02:50:38;23.50;46.10
51613;DHT22;37694;51.748;14.326;2023-05-07T02:53:03;23.50;46.20
51613;DHT22;37694;51.748;14.326;2023-05-07T02:55:29;23.50;45.90
51613;DHT22;37694;51.748;14.326;2023-05-07T02:57:55;23.40;46.00
51613;DHT22;37694;51.748;14.326;2023-05-07T03:00:21;23.50;46.20
51613;DHT22;37694;51.748;14.326;2023-05-07T03:02:47;23.40;46.00
51613;DHT22;37694;51.748;14.326;2023-05-07T03:05:12;23.40;46.10
51613;DHT22;37694;51.748;14.326;2023-05-07T03:07:39;23.40;46.10
51613;DHT22;37694;51.748;14.326;2023-05-07T03:10:06;23.40;46.20
51613;DHT22;37694;51.748;14.326;2023-05-07T03:12:32;23.40;46.10
51613;DHT22;37694;51.748;14.326;2023-05-07T03:14:58;23.40;46.00
51613;DHT22;37694;51.748;14.326;2023-05-07T03:17:23;23.40;46.10
51613;DHT22;37694;51.748;14.326;2023-05-07T03:19:49;23.40;45.90
51613;DHT22;37694;51.748;14.326;2023-05-07T03:22:14;23.40;46.10
51613;DHT22;37694;51.748;14.326;2023-05-07T03:24:40;23.40;46.10
51613;DHT22;37694;51.748;14.326;2023-05-07T03:27:06;23.40;46.00
51613;DHT22;37694;51.748;14.326;2023-05-07T03:29:31;23.40;46.10
51613;DHT22;37694;51.748;14.326;2023-05-07T03:31:57;23.40;46.10
51613;DHT22;37694;51.748;14.326;2023-05-07T03:34:23;23.40;46.20
51613;DHT22;37694;51.748;14.326;2023-05-07T03:36:49;23.40;46.10
51613;DHT22;37694;51.748;14.326;2023-05-07T03:39:15;23.40;46.00
51613;DHT22;37694;51.748;14.326;2023-05-07T03:41:40;23.40;46.00
51613;DHT22;37694;51.748;14.326;2023-05-07T03:44:06;23.40;46.00
51613;DHT22;37694;51.748;14.326;2023-05-07T03:46:33;23.30;45.90
51613;DHT22;37694;51.748;14.326;2023-05-07T03:48:58;23.30;45.90
51613;DHT22;37694;51.748;14.326;2023-05-07T03:51:24;23.30;45.90
51613;DHT22;37694;51.748;14.326;2023-05-07T03:53:51;23.30;45.90
51613;DHT22;37694;51.748;14.326;2023-05-07T03:56:18;23.30;45.80
51613;DHT22;37694;51.748;14.326;2023-05-07T03:58:44;23.30;45.80
51613;DHT22;37694;51.748;14.326;2023-05-07T04:01:10;23.30;45.80
51613;DHT22;37694;51.748;14.326;2023-05-07T04:03:36;23.30;45.80
51613;DHT22;37694;51.748;14.326;2023-05-07T04:06:02;23.30;45.90
51613;DHT22;37694;51.748;14.326;2023-05-07T04:08:28;23.30;46.00
51613;DHT22;37694;51.748;14.326;2023-05-07T04:10:57;23.30;45.80
51613;DHT22;37694;51.748;14.326;2023-05-07T04:13:23;23.30;45.80
51613;DHT22;37694;51.748;14.326;2023-05-07T04:15:48;23.30;45.70
51613;DHT22;37694;51.748;14.326;2023-05-07T04:18:15;23.30;45.80
51613;DHT22;37694;51.748;14.326;2023-05-07T04:20:41;23.30;45.90
51613;DHT22;37694;51.748;14.326;2023-05-07T04:23:07;23.30;45.80
51613;DHT22;37694;51.748;14.326;2023-05-07T04:25:32;23.30;46.80
51613;DHT22;37694;51.748;14.326;2023-05-07T04:27:58;23.30;45.80
51613;DHT22;37694;51.748;14.326;2023-05-07T04:30:24;23.20;45.80
51613;DHT22;37694;51.748;14.326;2023-05-07T04:32:50;23.30;45.70
51613;DHT22;37694;51.748;14.326;2023-05-07T04:35:16;23.30;45.80
51613;DHT22;37694;51.748;14.326;2023-05-07T04:37:42;23.20;45.80
51613;DHT22;37694;51.748;14.326;2023-05-07T04:40:08;23.20;45.60
51613;DHT22;37694;51.748;14.326;2023-05-07T04:42:34;23.20;45.60
51613;DHT22;37694;51.748;14.326;2023-05-07T04:45:01;23.20;45.60
51613;DHT22;37694;51.748;14.326;2023-05-07T04:47:27;23.20;45.60
51613;DHT22;37694;51.748;14.326;2023-05-07T04:49:53;23.20;45.60
51613;DHT22;37694;51.748;14.326;2023-05-07T04:52:18;23.20;45.60
51613;DHT22;37694;51.748;14.326;2023-05-07T04:54:44;23.20;45.50
51613;DHT22;37694;51.748;14.326;2023-05-07T04:57:10;23.20;45.50
51613;DHT22;37694;51.748;14.326;2023-05-07T04:59:35;23.20;45.70
51613;DHT22;37694;51.748;14.326;2023-05-07T05:02:01;23.20;45.70
51613;DHT22;37694;51.748;14.326;2023-05-07T05:04:27;23.20;45.70
51613;DHT22;37694;51.748;14.326;2023-05-07T05:06:52;23.20;45.50
51613;DHT22;37694;51.748;14.326;2023-05-07T05:09:18;23.10;45.50
51613;DHT22;37694;51.748;14.326;2023-05-07T05:11:44;23.10;45.50
51613;DHT22;37694;51.748;14.326;2023-05-07T05:14:09;23.10;45.30
51613;DHT22;37694;51.748;14.326;2023-05-07T05:16:35;23.10;45.60
51613;DHT22;37694;51.748;14.326;2023-05-07T05:19:02;23.10;45.50
51613;DHT22;37694;51.748;14.326;2023-05-07T05:21:27;23.10;45.30
51613;DHT22;37694;51.748;14.326;2023-05-07T05:23:53;23.20;45.30
51613;DHT22;37694;51.748;14.326;2023-05-07T05:26:19;23.10;45.20
51613;DHT22;37694;51.748;14.326;2023-05-07T05:28:46;23.10;45.30
51613;DHT22;37694;51.748;14.326;2023-05-07T05:31:12;23.20;45.30
51613;DHT22;37694;51.748;14.326;2023-05-07T05:33:39;23.20;45.30
51613;DHT22;37694;51.748;14.326;2023-05-07T05:36:05;23.20;45.40
51613;DHT22;37694;51.748;14.326;2023-05-07T05:38:31;23.20;45.40
51613;DHT22;37694;51.748;14.326;2023-05-07T05:40:57;23.20;45.30
51613;DHT22;37694;51.748;14.326;2023-05-07T05:43:23;23.20;45.30
51613;DHT22;37694;51.748;14.326;2023-05-07T05:45:49;23.20;45.30
51613;DHT22;37694;51.748;14.326;2023-05-07T05:48:14;23.20;45.30
51613;DHT22;37694;51.748;14.326;2023-05-07T05:50:42;23.20;45.30
51613;DHT22;37694;51.748;14.326;2023-05-07T05:53:08;23.20;45.20
51613;DHT22;37694;51.748;14.326;2023-05-07T05:55:34;23.20;45.40
51613;DHT22;37694;51.748;14.326;2023-05-07T05:58:00;23.20;45.20
51613;DHT22;37694;51.748;14.326;2023-05-07T06:00:27;23.20;45.20
51613;DHT22;37694;51.748;14.326;2023-05-07T06:02:52;23.20;45.20
51613;DHT22;37694;51.748;14.326;2023-05-07T06:05:18;23.20;45.20
51613;DHT22;37694;51.748;14.326;2023-05-07T06:07:44;23.30;45.10
51613;DHT22;37694;51.748;14.326;2023-05-07T06:10:10;23.30;45.10
51613;DHT22;37694;51.748;14.326;2023-05-07T06:12:35;23.20;45.10
51613;DHT22;37694;51.748;14.326;2023-05-07T06:15:01;23.30;45.10
51613;DHT22;37694;51.748;14.326;2023-05-07T06:17:27;23.20;45.10
51613;DHT22;37694;51.748;14.326;2023-05-07T06:19:53;23.30;45.10
51613;DHT22;37694;51.748;14.326;2023-05-07T06:22:19;23.30;45.20
51613;DHT22;37694;51.748;14.326;2023-05-07T06:24:44;23.30;45.10
51613;DHT22;37694;51.748;14.326;2023-05-07T06:27:10;23.30;45.30
51613;DHT22;37694;51.748;14.326;2023-05-07T06:29:36;23.30;45.20
51613;DHT22;37694;51.748;14.326;2023-05-07T06:32:11;23.30;45.10
51613;DHT22;37694;51.748;14.326;2023-05-07T06:34:37;23.30;45.10
51613;DHT22;37694;51.748;14.326;2023-05-07T06:37:03;23.30;45.10
51613;DHT22;37694;51.748;14.326;2023-05-07T06:39:29;23.30;45.20
51613;DHT22;37694;51.748;14.326;2023-05-07T06:41:55;23.30;45.20
51613;DHT22;37694;51.748;14.326;2023-05-07T06:44:21;23.40;45.20
51613;DHT22;37694;51.748;14.326;2023-05-07T06:46:46;23.30;45.10
51613;DHT22;37694;51.748;14.326;2023-05-07T06:49:12;23.40;45.20
51613;DHT22;37694;51.748;14.326;2023-05-07T06:51:38;23.40;45.20
51613;DHT22;37694;51.748;14.326;2023-05-07T06:54:04;23.40;45.10
51613;DHT22;37694;51.748;14.326;2023-05-07T06:56:30;23.40;45.10
51613;DHT22;37694;51.748;14.326;2023-05-07T06:58:56;23.40;45.20
51613;DHT22;37694;51.748;14.326;2023-05-07T07:01:22;23.40;45.10
51613;DHT22;37694;51.748;14.326;2023-05-07T07:03:47;23.40;45.10
51613;DHT22;37694;51.748;14.326;2023-05-07T07:06:14;23.40;45.00
51613;DHT22;37694;51.748;14.326;2023-05-07T07:08:39;23.40;45.10
51613;DHT22;37694;51.748;14.326;2023-05-07T07:11:06;23.40;45.00
51613;DHT22;37694;51.748;14.326;2023-05-07T07:13:31;23.40;45.00
51613;DHT22;37694;51.748;14.326;2023-05-07T07:15:57;23.40;45.10
51613;DHT22;37694;51.748;14.326;2023-05-07T07:18:23;23.40;45.10
51613;DHT22;37694;51.748;14.326;2023-05-07T07:20:48;23.40;45.20
51613;DHT22;37694;51.748;14.326;2023-05-07T07:23:14;23.40;45.10
51613;DHT22;37694;51.748;14.326;2023-05-07T07:25:40;23.40;45.50
51613;DHT22;37694;51.748;14.326;2023-05-07T07:28:06;23.40;45.50
51613;DHT22;37694;51.748;14.326;2023-05-07T07:30:31;23.40;45.60
51613;DHT22;37694;51.748;14.326;2023-05-07T07:32:57;23.40;46.00
51613;DHT22;37694;51.748;14.326;2023-05-07T07:35:31;23.50;46.00
51613;DHT22;37694;51.748;14.326;2023-05-07T07:37:57;23.40;46.10
51613;DHT22;37694;51.748;14.326;2023-05-07T07:40:23;23.50;46.20
51613;DHT22;37694;51.748;14.326;2023-05-07T07:42:49;23.50;46.20
51613;DHT22;37694;51.748;14.326;2023-05-07T07:45:15;23.50;46.50
51613;DHT22;37694;51.748;14.326;2023-05-07T07:47:40;23.50;46.50
51613;DHT22;37694;51.748;14.326;2023-05-07T07:50:07;23.60;46.90
51613;DHT22;37694;51.748;14.326;2023-05-07T07:52:33;23.60;47.00
51613;DHT22;37694;51.748;14.326;2023-05-07T07:54:59;23.60;46.90
51613;DHT22;37694;51.748;14.326;2023-05-07T07:57:25;23.70;46.90
51613;DHT22;37694;51.748;14.326;2023-05-07T07:59:50;23.70;46.80
51613;DHT22;37694;51.748;14.326;2023-05-07T08:02:17;23.70;46.70
51613;DHT22;37694;51.748;14.326;2023-05-07T08:04:43;23.70;46.80
51613;DHT22;37694;51.748;14.326;2023-05-07T08:07:09;23.70;46.80
51613;DHT22;37694;51.748;14.326;2023-05-07T08:09:36;23.70;46.70
51613;DHT22;37694;51.748;14.326;2023-05-07T08:12:02;23.70;46.60
51613;DHT22;37694;51.748;14.326;2023-05-07T08:14:28;23.70;46.70
51613;DHT22;37694;51.748;14.326;2023-05-07T08:16:54;23.70;46.60
51613;DHT22;37694;51.748;14.326;2023-05-07T08:19:20;23.80;46.50
51613;DHT22;37694;51.748;14.326;2023-05-07T08:21:47;23.80;46.90
51613;DHT22;37694;51.748;14.326;2023-05-07T08:24:14;23.80;46.50
51613;DHT22;37694;51.748;14.326;2023-05-07T08:26:40;23.80;46.50
51613;DHT22;37694;51.748;14.326;2023-05-07T08:29:05;23.80;46.60
51613;DHT22;37694;51.748;14.326;2023-05-07T08:31:31;23.80;46.50
51613;DHT22;37694;51.748;14.326;2023-05-07T08:33:58;23.90;46.60
51613;DHT22;37694;51.748;14.326;2023-05-07T08:36:24;23.90;46.40
51613;DHT22;37694;51.748;14.326;2023-05-07T08:38:51;23.90;46.40
51613;DHT22;37694;51.748;14.326;2023-05-07T08:41:17;23.90;46.50
51613;DHT22;37694;51.748;14.326;2023-05-07T08:43:49;23.90;46.30
51613;DHT22;37694;51.748;14.326;2023-05-07T08:46:21;23.90;46.30
51613;DHT22;37694;51.748;14.326;2023-05-07T08:48:51;23.90;46.20
51613;DHT22;37694;51.748;14.326;2023-05-07T08:51:21;23.90;46.10
51613;DHT22;37694;51.748;14.326;2023-05-07T08:53:48;23.90;46.40
51613;DHT22;37694;51.748;14.326;2023-05-07T08:56:16;23.90;46.30
51613;DHT22;37694;51.748;14.326;2023-05-07T08:58:43;23.90;46.30
51613;DHT22;37694;51.748;14.326;2023-05-07T09:01:13;23.90;46.30
51613;DHT22;37694;51.748;14.326;2023-05-07T09:03:39;23.90;46.30
51613;DHT22;37694;51.748;14.326;2023-05-07T09:06:06;23.90;46.60
51613;DHT22;37694;51.748;14.326;2023-05-07T09:08:33;23.90;46.30
51613;DHT22;37694;51.748;14.326;2023-05-07T09:10:59;24.00;46.50
51613;DHT22;37694;51.748;14.326;2023-05-07T09:13:26;24.00;46.50
51613;DHT22;37694;51.748;14.326;2023-05-07T09:15:52;24.10;46.30
51613;DHT22;37694;51.748;14.326;2023-05-07T09:18:18;24.10;46.20
51613;DHT22;37694;51.748;14.326;2023-05-07T09:20:44;24.20;46.30
51613;DHT22;37694;51.748;14.326;2023-05-07T09:23:09;24.20;46.40
51613;DHT22;37694;51.748;14.326;2023-05-07T09:25:36;24.20;46.30
51613;DHT22;37694;51.748;14.326;2023-05-07T09:28:03;24.20;46.10
51613;DHT22;37694;51.748;14.326;2023-05-07T09:30:30;24.20;46.10
51613;DHT22;37694;51.748;14.326;2023-05-07T09:33:00;24.20;46.40
51613;DHT22;37694;51.748;14.326;2023-05-07T09:35:26;24.30;46.40
51613;DHT22;37694;51.748;14.326;2023-05-07T09:37:56;24.30;46.20
51613;DHT22;37694;51.748;14.326;2023-05-07T09:40:22;24.30;46.10
51613;DHT22;37694;51.748;14.326;2023-05-07T09:42:49;24.40;46.20
51613;DHT22;37694;51.748;14.326;2023-05-07T09:45:16;24.40;46.90
51613;DHT22;37694;51.748;14.326;2023-05-07T09:47:43;24.40;46.60
51613;DHT22;37694;51.748;14.326;2023-05-07T09:50:12;24.40;47.10
51613;DHT22;37694;51.748;14.326;2023-05-07T09:52:41;24.40;45.80
51613;DHT22;37694;51.748;14.326;2023-05-07T09:55:08;24.30;45.00
51613;DHT22;37694;51.748;14.326;2023-05-07T09:57:34;24.30;45.10
51613;DHT22;37694;51.748;14.326;2023-05-07T10:00:03;24.30;45.00
51613;DHT22;37694;51.748;14.326;2023-05-07T10:02:35;24.30;44.40
51613;DHT22;37694;51.748;14.326;2023-05-07T10:05:01;24.30;45.20
51613;DHT22;37694;51.748;14.326;2023-05-07T10:07:27;24.30;45.20
51613;DHT22;37694;51.748;14.326;2023-05-07T10:09:54;24.20;43.70
51613;DHT22;37694;51.748;14.326;2023-05-07T10:12:20;24.20;43.50
51613;DHT22;37694;51.748;14.326;2023-05-07T10:14:46;24.20;42.90
51613;DHT22;37694;51.748;14.326;2023-05-07T10:17:13;24.10;43.00
51613;DHT22;37694;51.748;14.326;2023-05-07T10:19:41;24.10;42.70
51613;DHT22;37694;51.748;14.326;2023-05-07T10:22:08;24.10;42.90
51613;DHT22;37694;51.748;14.326;2023-05-07T10:24:36;24.10;43.10
51613;DHT22;37694;51.748;14.326;2023-05-07T10:27:06;24.10;43.30
51613;DHT22;37694;51.748;14.326;2023-05-07T10:34:54;24.20;44.30
51613;DHT22;37694;51.748;14.326;2023-05-07T10:37:21;24.30;44.20
51613;DHT22;37694;51.748;14.326;2023-05-07T10:39:47;24.30;44.50
51613;DHT22;37694;51.748;14.326;2023-05-07T10:42:14;24.30;44.60
51613;DHT22;37694;51.748;14.326;2023-05-07T10:44:40;24.30;44.70
51613;DHT22;37694;51.748;14.326;2023-05-07T10:47:11;24.30;44.70
51613;DHT22;37694;51.748;14.326;2023-05-07T10:52:31;24.30;44.60
51613;DHT22;37694;51.748;14.326;2023-05-07T10:55:19;24.30;44.60
51613;DHT22;37694;51.748;14.326;2023-05-07T10:57:46;24.30;44.60
51613;DHT22;37694;51.748;14.326;2023-05-07T11:05:29;24.30;44.80
51613;DHT22;37694;51.748;14.326;2023-05-07T11:07:56;24.30;45.20
51613;DHT22;37694;51.748;14.326;2023-05-07T11:10:22;24.30;45.10
51613;DHT22;37694;51.748;14.326;2023-05-07T11:12:51;24.30;44.90
51613;DHT22;37694;51.748;14.326;2023-05-07T11:15:37;24.30;44.70
51613;DHT22;37694;51.748;14.326;2023-05-07T11:18:03;24.30;44.30
51613;DHT22;37694;51.748;14.326;2023-05-07T11:20:57;24.30;44.30
51613;DHT22;37694;51.748;14.326;2023-05-07T11:26:08;24.30;44.40
51613;DHT22;37694;51.748;14.326;2023-05-07T11:28:41;24.30;44.40
51613;DHT22;37694;51.748;14.326;2023-05-07T11:31:07;24.30;44.20
51613;DHT22;37694;51.748;14.326;2023-05-07T11:33:34;24.30;44.10
51613;DHT22;37694;51.748;14.326;2023-05-07T11:36:01;24.30;44.30
51613;DHT22;37694;51.748;14.326;2023-05-07T11:38:29;24.30;44.60
51613;DHT22;37694;51.748;14.326;2023-05-07T11:40:57;24.30;45.10
51613;DHT22;37694;51.748;14.326;2023-05-07T11:43:24;24.30;44.70
51613;DHT22;37694;51.748;14.326;2023-05-07T11:45:50;24.30;45.20
51613;DHT22;37694;51.748;14.326;2023-05-07T11:48:16;24.20;45.30
51613;DHT22;37694;51.748;14.326;2023-05-07T11:51:02;24.30;44.90
51613;DHT22;37694;51.748;14.326;2023-05-07T11:53:36;24.20;44.50
51613;DHT22;37694;51.748;14.326;2023-05-07T11:56:09;24.20;44.50
51613;DHT22;37694;51.748;14.326;2023-05-07T11:58:36;24.30;45.50
51613;DHT22;37694;51.748;14.326;2023-05-07T12:01:02;24.20;46.30
51613;DHT22;37694;51.748;14.326;2023-05-07T12:03:28;24.30;45.60
51613;DHT22;37694;51.748;14.326;2023-05-07T12:05:54;24.30;45.50
51613;DHT22;37694;51.748;14.326;2023-05-07T12:08:21;24.30;45.50
51613;DHT22;37694;51.748;14.326;2023-05-07T12:10:50;24.20;45.10
51613;DHT22;37694;51.748;14.326;2023-05-07T12:13:22;24.30;45.40
51613;DHT22;37694;51.748;14.326;2023-05-07T12:15:52;24.30;45.90
51613;DHT22;37694;51.748;14.326;2023-05-07T12:18:18;24.30;46.40
51613;DHT22;37694;51.748;14.326;2023-05-07T12:20:44;24.30;46.70
51613;DHT22;37694;51.748;14.326;2023-05-07T12:23:11;24.40;47.50
51613;DHT22;37694;51.748;14.326;2023-05-07T12:25:41;24.40;47.70
51613;DHT22;37694;51.748;14.326;2023-05-07T12:28:17;24.50;48.00
51613;DHT22;37694;51.748;14.326;2023-05-07T12:30:44;24.50;47.90
51613;DHT22;37694;51.748;14.326;2023-05-07T12:33:11;24.50;48.10
51613;DHT22;37694;51.748;14.326;2023-05-07T12:35:41;24.50;48.30
51613;DHT22;37694;51.748;14.326;2023-05-07T12:38:17;24.50;48.40
51613;DHT22;37694;51.748;14.326;2023-05-07T12:43:24;24.50;48.70
51613;DHT22;37694;51.748;14.326;2023-05-07T12:45:51;24.50;49.00
51613;DHT22;37694;51.748;14.326;2023-05-07T12:48:17;24.50;48.80
51613;DHT22;37694;51.748;14.326;2023-05-07T12:50:44;24.60;48.60
51613;DHT22;37694;51.748;14.326;2023-05-07T12:53:11;24.60;49.20
51613;DHT22;37694;51.748;14.326;2023-05-07T12:55:48;24.50;49.20
51613;DHT22;37694;51.748;14.326;2023-05-07T13:00:46;24.50;49.00
51613;DHT22;37694;51.748;14.326;2023-05-07T13:03:30;24.50;49.20
51613;DHT22;37694;51.748;14.326;2023-05-07T13:05:57;24.60;49.40
51613;DHT22;37694;51.748;14.326;2023-05-07T13:10:53;24.50;49.80
51613;DHT22;37694;51.748;14.326;2023-05-07T13:13:20;24.50;49.80
51613;DHT22;37694;51.748;14.326;2023-05-07T13:15:46;24.60;50.00
51613;DHT22;37694;51.748;14.326;2023-05-07T13:18:12;24.60;50.00
51613;DHT22;37694;51.748;14.326;2023-05-07T13:20:38;24.60;50.30
51613;DHT22;37694;51.748;14.326;2023-05-07T13:23:03;24.60;50.10
51613;DHT22;37694;51.748;14.326;2023-05-07T13:25:30;24.60;49.50
51613;DHT22;37694;51.748;14.326;2023-05-07T13:27:59;24.70;50.10
51613;DHT22;37694;51.748;14.326;2023-05-07T13:30:25;24.70;50.10
51613;DHT22;37694;51.748;14.326;2023-05-07T13:32:53;24.70;50.20
51613;DHT22;37694;51.748;14.326;2023-05-07T13:35:19;24.70;50.30
51613;DHT22;37694;51.748;14.326;2023-05-07T13:37:44;24.70;50.30
51613;DHT22;37694;51.748;14.326;2023-05-07T13:40:10;24.70;50.10
51613;DHT22;37694;51.748;14.326;2023-05-07T13:42:36;24.70;50.40
51613;DHT22;37694;51.748;14.326;2023-05-07T13:45:02;24.70;50.20
51613;DHT22;37694;51.748;14.326;2023-05-07T13:47:30;24.70;50.30
51613;DHT22;37694;51.748;14.326;2023-05-07T13:49:56;24.70;50.30
51613;DHT22;37694;51.748;14.326;2023-05-07T13:52:21;24.70;50.10
51613;DHT22;37694;51.748;14.326;2023-05-07T13:54:47;24.70;49.50
51613;DHT22;37694;51.748;14.326;2023-05-07T13:57:13;24.60;48.90
51613;DHT22;37694;51.748;14.326;2023-05-07T13:59:38;24.60;48.40
51613;DHT22;37694;51.748;14.326;2023-05-07T14:02:04;24.70;47.90
51613;DHT22;37694;51.748;14.326;2023-05-07T14:04:30;24.70;49.20
51613;DHT22;37694;51.748;14.326;2023-05-07T14:06:56;24.70;47.90
51613;DHT22;37694;51.748;14.326;2023-05-07T14:09:22;24.60;47.70
51613;DHT22;37694;51.748;14.326;2023-05-07T14:11:47;24.60;49.30
51613;DHT22;37694;51.748;14.326;2023-05-07T14:14:17;24.60;49.20
51613;DHT22;37694;51.748;14.326;2023-05-07T14:16:43;24.60;48.50
51613;DHT22;37694;51.748;14.326;2023-05-07T14:19:08;24.60;48.20
51613;DHT22;37694;51.748;14.326;2023-05-07T14:21:34;24.60;48.60
51613;DHT22;37694;51.748;14.326;2023-05-07T14:23:59;24.60;48.90
51613;DHT22;37694;51.748;14.326;2023-05-07T14:26:25;24.60;48.90
51613;DHT22;37694;51.748;14.326;2023-05-07T14:28:52;24.70;49.40
51613;DHT22;37694;51.748;14.326;2023-05-07T14:31:20;24.60;48.60
51613;DHT22;37694;51.748;14.326;2023-05-07T14:33:46;24.60;49.30
51613;DHT22;37694;51.748;14.326;2023-05-07T14:36:12;24.60;48.60
51613;DHT22;37694;51.748;14.326;2023-05-07T14:38:37;24.60;49.10
51613;DHT22;37694;51.748;14.326;2023-05-07T14:41:03;24.60;50.00
51613;DHT22;37694;51.748;14.326;2023-05-07T14:43:29;24.60;50.10
51613;DHT22;37694;51.748;14.326;2023-05-07T14:45:55;24.70;51.10
51613;DHT22;37694;51.748;14.326;2023-05-07T14:48:20;24.70;50.60
51613;DHT22;37694;51.748;14.326;2023-05-07T14:50:49;24.60;50.80
51613;DHT22;37694;51.748;14.326;2023-05-07T14:53:15;24.60;50.30
51613;DHT22;37694;51.748;14.326;2023-05-07T14:55:41;24.60;50.70
51613;DHT22;37694;51.748;14.326;2023-05-07T14:58:07;24.60;50.70
51613;DHT22;37694;51.748;14.326;2023-05-07T15:00:33;24.60;50.90
51613;DHT22;37694;51.748;14.326;2023-05-07T15:03:06;24.60;50.50
51613;DHT22;37694;51.748;14.326;2023-05-07T15:05:32;24.60;50.30
51613;DHT22;37694;51.748;14.326;2023-05-07T15:07:58;24.60;50.20
51613;DHT22;37694;51.748;14.326;2023-05-07T15:10:24;24.50;49.70
51613;DHT22;37694;51.748;14.326;2023-05-07T15:12:50;24.50;49.90
51613;DHT22;37694;51.748;14.326;2023-05-07T15:15:15;24.50;50.90
51613;DHT22;37694;51.748;14.326;2023-05-07T15:17:41;24.50;50.80
51613;DHT22;37694;51.748;14.326;2023-05-07T15:20:07;24.50;49.40
51613;DHT22;37694;51.748;14.326;2023-05-07T15:22:35;24.50;49.20
51613;DHT22;37694;51.748;14.326;2023-05-07T15:25:03;24.50;49.60
51613;DHT22;37694;51.748;14.326;2023-05-07T15:27:29;24.50;49.30
51613;DHT22;37694;51.748;14.326;2023-05-07T15:29:56;24.50;49.20
51613;DHT22;37694;51.748;14.326;2023-05-07T15:32:22;24.60;49.30
51613;DHT22;37694;51.748;14.326;2023-05-07T15:34:48;24.50;49.50
51613;DHT22;37694;51.748;14.326;2023-05-07T15:37:14;24.50;49.90
51613;DHT22;37694;51.748;14.326;2023-05-07T15:39:39;24.50;49.70